createdAt,value
2018-12-06T00:01:38.243Z,19.43
2018-12-06T00:04:04.111Z,12.93
2018-12-06T00:06:29.978Z,14.57
2018-12-06T00:08:55.849Z,13.80
2018-12-06T00:11:21.714Z,10.00
2018-12-06T00:13:47.630Z,10.33
2018-12-06T00:16:13.501Z,15.23
2018-12-06T00:18:39.374Z,9.87
2018-12-06T00:21:05.237Z,10.77
2018-12-06T00:23:31.124Z,15.47
2018-12-06T00:25:57.007Z,11.90
2018-12-06T00:28:22.906Z,15.77
2018-12-06T00:30:48.798Z,13.20
2018-12-06T00:33:14.651Z,15.50
2018-12-06T00:35:40.725Z,16.30
2018-12-06T00:38:06.595Z,11.87
2018-12-06T00:40:32.458Z,14.90
2018-12-06T00:42:58.400Z,14.00
2018-12-06T00:45:24.296Z,11.60
2018-12-06T00:47:50.167Z,11.77
2018-12-06T00:50:16.038Z,13.63
2018-12-06T00:52:41.895Z,13.60
2018-12-06T00:55:07.779Z,13.10
2018-12-06T00:57:33.638Z,12.40
2018-12-06T00:59:59.506Z,13.07
2018-12-06T01:02:25.360Z,9.50
2018-12-06T01:04:51.247Z,11.90
2018-12-06T01:07:24.122Z,14.07
2018-12-06T01:09:56.923Z,11.47
2018-12-06T01:12:23.108Z,26.37
2018-12-06T01:14:48.947Z,22.47
2018-12-06T01:17:14.798Z,26.23
2018-12-06T01:19:40.646Z,19.50
2018-12-06T01:22:06.498Z,41.33
2018-12-06T01:24:32.376Z,32.33
2018-12-06T01:26:58.251Z,16.17
2018-12-06T01:29:24.123Z,17.83
2018-12-06T01:31:50.004Z,20.97
2018-12-06T01:34:15.876Z,17.93
2018-12-06T01:36:41.743Z,14.80
2018-12-06T01:39:07.632Z,22.17
2018-12-06T01:41:33.519Z,21.00
2018-12-06T01:44:00.661Z,18.20
2018-12-06T01:46:26.522Z,14.93
2018-12-06T01:48:52.371Z,19.43
2018-12-06T01:51:18.211Z,14.57
2018-12-06T01:53:44.070Z,14.90
2018-12-06T01:56:09.927Z,14.70
2018-12-06T01:58:35.774Z,21.03
2018-12-06T02:01:01.651Z,17.97
2018-12-06T02:03:27.502Z,17.03
2018-12-06T02:05:53.387Z,19.30
2018-12-06T02:08:19.303Z,17.73
2018-12-06T02:10:45.204Z,12.67
2018-12-06T02:13:11.059Z,15.33
2018-12-06T02:15:36.927Z,13.23
2018-12-06T02:18:02.786Z,14.60
2018-12-06T02:20:28.681Z,20.33
2018-12-06T02:22:54.531Z,17.00
2018-12-06T02:25:20.405Z,15.73
2018-12-06T02:27:46.259Z,16.40
2018-12-06T02:30:12.227Z,15.10
2018-12-06T02:32:38.108Z,17.33
2018-12-06T02:35:04.091Z,15.77
2018-12-06T02:37:30.006Z,14.27
2018-12-06T02:39:55.845Z,12.20
2018-12-06T02:42:21.724Z,17.47
2018-12-06T02:44:47.606Z,18.50
2018-12-06T02:47:13.487Z,17.37
2018-12-06T02:49:39.307Z,20.20
2018-12-06T02:52:05.212Z,12.07
2018-12-06T02:54:31.066Z,12.60
2018-12-06T02:56:56.981Z,12.37
2018-12-06T02:59:22.823Z,12.33
2018-12-06T03:01:48.778Z,12.40
2018-12-06T03:04:14.635Z,12.80
2018-12-06T03:06:40.649Z,14.27
2018-12-06T03:09:06.649Z,13.00
2018-12-06T03:11:32.515Z,10.93
2018-12-06T03:13:58.407Z,10.73
2018-12-06T03:16:24.274Z,12.60
2018-12-06T03:18:50.268Z,16.50
2018-12-06T03:21:16.157Z,12.27
2018-12-06T03:23:42.026Z,14.57
2018-12-06T03:26:07.870Z,14.90
2018-12-06T03:28:33.770Z,13.80
2018-12-06T03:30:59.666Z,14.43
2018-12-06T03:33:25.558Z,13.63
2018-12-06T03:35:51.432Z,13.37
2018-12-06T03:38:17.275Z,10.70
2018-12-06T03:40:43.140Z,12.50
2018-12-06T03:43:09.015Z,12.90
2018-12-06T03:45:34.885Z,16.17
2018-12-06T03:48:00.766Z,17.30
2018-12-06T03:50:26.636Z,16.33
2018-12-06T03:52:52.493Z,11.90
2018-12-06T03:55:18.379Z,15.90
2018-12-06T03:57:44.243Z,14.63
2018-12-06T04:00:10.137Z,11.80
2018-12-06T04:02:36.011Z,15.40
2018-12-06T04:05:01.904Z,13.97
2018-12-06T04:07:27.746Z,14.27
2018-12-06T04:09:53.611Z,13.70
2018-12-06T04:12:19.588Z,11.80
2018-12-06T04:14:45.430Z,12.63
2018-12-06T04:17:11.299Z,14.90
2018-12-06T04:19:37.138Z,17.93
2018-12-06T04:22:02.990Z,16.60
2018-12-06T04:24:28.849Z,14.30
2018-12-06T04:26:54.761Z,17.23
2018-12-06T04:29:20.614Z,16.30
2018-12-06T04:31:46.475Z,15.87
2018-12-06T04:34:12.332Z,19.00
2018-12-06T04:36:38.218Z,15.90
2018-12-06T04:39:04.693Z,13.00
2018-12-06T04:41:30.563Z,12.50
2018-12-06T04:43:56.416Z,11.57
2018-12-06T04:46:22.279Z,15.73
2018-12-06T04:48:48.159Z,16.07
2018-12-06T04:51:14.100Z,13.50
2018-12-06T04:53:39.946Z,17.17
2018-12-06T04:56:05.880Z,19.50
2018-12-06T04:58:31.791Z,17.10
2018-12-06T05:00:57.671Z,24.87
2018-12-06T05:03:23.533Z,20.73
2018-12-06T05:05:49.365Z,15.97
2018-12-06T05:08:15.229Z,13.43
2018-12-06T05:10:41.068Z,19.20
2018-12-06T05:13:06.961Z,16.90
2018-12-06T05:15:32.811Z,16.27
2018-12-06T05:17:58.708Z,16.13
2018-12-06T05:20:24.583Z,19.90
2018-12-06T05:22:50.542Z,18.57
2018-12-06T05:25:16.394Z,14.77
2018-12-06T05:27:42.234Z,14.77
2018-12-06T05:30:08.524Z,16.37
2018-12-06T05:32:34.541Z,16.30
2018-12-06T05:35:00.545Z,17.90
2018-12-06T05:37:26.439Z,14.53
2018-12-06T05:39:52.295Z,14.63
2018-12-06T05:42:18.145Z,16.80
2018-12-06T05:44:44.010Z,14.77
2018-12-06T05:47:09.876Z,13.50
2018-12-06T05:49:35.691Z,14.43
2018-12-06T05:52:01.578Z,20.37
2018-12-06T05:54:27.425Z,10.30
2018-12-06T05:56:53.262Z,15.23
2018-12-06T05:59:19.152Z,14.40
2018-12-06T06:01:45.023Z,12.00
2018-12-06T06:04:10.891Z,10.93
2018-12-06T06:06:36.753Z,14.77
2018-12-06T06:09:04.682Z,16.97
2018-12-06T06:11:30.530Z,16.10
2018-12-06T06:13:56.536Z,14.10
2018-12-06T06:16:22.398Z,23.80
2018-12-06T06:18:48.252Z,20.70
2018-12-06T06:21:14.136Z,22.63
2018-12-06T06:23:39.966Z,28.03
2018-12-06T06:26:05.842Z,20.43
2018-12-06T06:28:31.698Z,31.87
2018-12-06T06:34:26.995Z,19.90
2018-12-06T06:36:52.890Z,14.00
2018-12-06T06:39:18.719Z,12.90
2018-12-06T06:41:44.579Z,14.13
2018-12-06T06:44:10.435Z,19.97
2018-12-06T06:46:36.312Z,14.17
2018-12-06T06:49:02.282Z,22.87
2018-12-06T06:51:28.242Z,17.40
2018-12-06T06:53:54.100Z,10.73
2018-12-06T06:56:19.944Z,15.60
2018-12-06T06:58:45.820Z,14.73
2018-12-06T07:01:11.765Z,16.00
2018-12-06T07:03:37.600Z,14.50
2018-12-06T07:06:03.456Z,16.43
2018-12-06T07:08:29.354Z,16.00
2018-12-06T07:10:55.206Z,13.80
2018-12-06T07:13:21.094Z,10.87
2018-12-06T07:15:46.946Z,11.77
2018-12-06T07:18:12.832Z,12.30
2018-12-06T07:20:38.709Z,13.13
2018-12-06T07:23:04.956Z,11.37
2018-12-06T07:25:30.855Z,12.23
2018-12-06T07:27:57.094Z,11.30
2018-12-06T07:30:22.986Z,11.10
2018-12-06T07:32:48.906Z,11.20
2018-12-06T07:35:14.747Z,12.30
2018-12-06T07:37:40.681Z,15.40
2018-12-06T07:40:06.673Z,9.33
2018-12-06T07:42:32.554Z,8.67
2018-12-06T07:44:58.532Z,10.63
2018-12-06T07:47:24.741Z,12.30
2018-12-06T07:49:50.634Z,9.83
2018-12-06T07:52:17.347Z,18.73
2018-12-06T07:54:43.250Z,22.83
2018-12-06T07:57:09.122Z,18.67
2018-12-06T07:59:35.001Z,14.70
2018-12-06T08:02:00.866Z,11.53
2018-12-06T08:04:26.732Z,9.70
2018-12-06T08:06:52.562Z,8.80
2018-12-06T08:09:18.517Z,8.60
2018-12-06T08:11:44.423Z,8.90
2018-12-06T08:14:10.678Z,12.63
2018-12-06T08:16:36.528Z,10.33
2018-12-06T08:19:02.525Z,8.33
2018-12-06T08:21:28.391Z,12.10
2018-12-06T08:23:54.265Z,11.40
2018-12-06T08:26:21.773Z,9.53
2018-12-06T08:28:47.646Z,12.07
2018-12-06T08:31:13.494Z,10.57
2018-12-06T08:33:39.339Z,23.13
2018-12-06T08:36:05.218Z,30.67
2018-12-06T08:38:31.083Z,11.30
2018-12-06T08:40:56.965Z,8.53
2018-12-06T08:43:22.819Z,9.30
2018-12-06T08:45:48.691Z,11.13
2018-12-06T08:48:14.531Z,8.33
2018-12-06T08:50:40.438Z,12.33
2018-12-06T08:53:06.298Z,9.73
2018-12-06T08:55:32.154Z,12.80
2018-12-06T08:57:58.073Z,10.50
2018-12-06T09:00:24.879Z,14.90
2018-12-06T09:02:50.826Z,14.23
2018-12-06T09:05:16.801Z,10.53
2018-12-06T09:07:42.788Z,9.37
2018-12-06T09:10:08.818Z,11.40
2018-12-06T09:12:41.870Z,13.20
2018-12-06T09:15:08.147Z,16.83
2018-12-06T09:17:34.036Z,13.47
2018-12-06T09:19:59.950Z,13.20
2018-12-06T09:22:25.811Z,13.43
2018-12-06T09:24:51.826Z,12.30
2018-12-06T09:27:17.812Z,11.10
2018-12-06T09:29:43.724Z,10.30
2018-12-06T09:32:09.611Z,12.33
2018-12-06T09:34:35.458Z,11.60
2018-12-06T09:37:01.365Z,14.47
2018-12-06T09:39:27.243Z,12.50
2018-12-06T09:41:53.106Z,13.67
2018-12-06T09:44:18.950Z,19.13
2018-12-06T09:46:44.804Z,10.30
2018-12-06T09:49:10.670Z,10.77
2018-12-06T09:51:36.535Z,11.37
2018-12-06T09:54:02.575Z,8.87
2018-12-06T09:56:28.739Z,10.87
2018-12-06T09:58:54.640Z,9.43
2018-12-06T10:01:20.553Z,8.40
2018-12-06T10:03:46.465Z,12.20
2018-12-06T10:06:12.380Z,9.57
2018-12-06T10:08:38.372Z,9.63
2018-12-06T10:11:04.226Z,11.80
2018-12-06T10:13:30.079Z,14.40
2018-12-06T10:15:55.946Z,14.93
2018-12-06T10:18:21.812Z,10.50
2018-12-06T10:20:47.712Z,12.17
2018-12-06T10:23:13.574Z,13.77
2018-12-06T10:25:39.429Z,12.33
2018-12-06T10:28:05.387Z,10.63
2018-12-06T10:30:31.239Z,15.97
2018-12-06T10:32:57.102Z,15.53
2018-12-06T10:35:23.350Z,12.77
2018-12-06T10:37:49.224Z,15.87
2018-12-06T10:40:15.121Z,11.97
2018-12-06T10:42:40.978Z,14.63
2018-12-06T10:45:06.913Z,11.97
2018-12-06T10:47:32.794Z,12.30
2018-12-06T10:49:58.872Z,13.10
2018-12-06T10:52:24.701Z,15.97
2018-12-06T10:54:50.567Z,12.10
2018-12-06T10:57:16.447Z,19.87
2018-12-06T10:59:42.335Z,11.80
2018-12-06T11:02:14.435Z,16.27
2018-12-06T11:04:43.199Z,19.67
2018-12-06T11:07:09.060Z,17.33
2018-12-06T11:09:34.987Z,13.43
2018-12-06T11:12:00.892Z,15.00
2018-12-06T11:14:26.785Z,11.70
2018-12-06T11:16:52.654Z,15.00
2018-12-06T11:19:18.529Z,13.20
2018-12-06T11:21:44.445Z,13.77
2018-12-06T11:24:10.445Z,12.10
2018-12-06T11:26:36.383Z,14.10
2018-12-06T11:29:02.270Z,15.87
2018-12-06T11:31:28.135Z,15.90
2018-12-06T11:33:54.230Z,13.40
2018-12-06T11:36:20.128Z,11.83
2018-12-06T11:38:46.005Z,14.90
2018-12-06T11:41:11.916Z,17.53
2018-12-06T11:43:37.792Z,15.10
2018-12-06T11:46:03.667Z,14.63
2018-12-06T11:48:29.565Z,14.47
2018-12-06T11:50:55.431Z,12.93
2018-12-06T11:53:21.302Z,14.67
2018-12-06T11:55:47.168Z,16.57
2018-12-06T11:58:13.060Z,12.40
2018-12-06T12:00:38.963Z,13.47
2018-12-06T12:03:04.977Z,15.13
2018-12-06T12:05:30.912Z,16.37
2018-12-06T12:07:56.782Z,11.77
2018-12-06T12:10:22.698Z,15.83
2018-12-06T12:12:48.588Z,17.73
2018-12-06T12:15:14.488Z,16.40
2018-12-06T12:17:40.492Z,13.87
2018-12-06T12:20:06.593Z,16.40
2018-12-06T12:22:32.718Z,13.67
2018-12-06T12:24:58.691Z,12.40
2018-12-06T12:27:24.669Z,11.47
2018-12-06T12:29:50.669Z,14.80
2018-12-06T12:32:16.594Z,21.03
2018-12-06T12:34:42.690Z,13.93
2018-12-06T12:37:08.745Z,11.20
2018-12-06T12:39:34.658Z,18.07
2018-12-06T12:42:00.574Z,11.30
2018-12-06T12:44:26.476Z,13.50
2018-12-06T12:46:52.424Z,17.10
2018-12-06T12:49:18.600Z,15.73
2018-12-06T12:51:44.797Z,17.77
2018-12-06T12:54:10.939Z,24.30
2018-12-06T12:56:37.159Z,17.70
2018-12-06T12:59:03.315Z,13.03
2018-12-06T13:01:29.526Z,17.87
2018-12-06T13:03:55.664Z,16.40
2018-12-06T13:06:21.681Z,12.87
2018-12-06T13:08:47.794Z,14.00
2018-12-06T13:11:13.931Z,15.30
2018-12-06T13:13:40.071Z,27.00
2018-12-06T13:16:06.240Z,15.07
2018-12-06T13:18:32.458Z,24.63
2018-12-06T13:20:58.395Z,26.33
2018-12-06T13:23:24.539Z,33.70
2018-12-06T13:25:50.674Z,23.73
2018-12-06T13:28:16.857Z,20.70
2018-12-06T13:30:43.059Z,26.87
2018-12-06T13:33:09.196Z,21.97
2018-12-06T13:35:35.384Z,25.67
2018-12-06T13:38:01.636Z,19.70
2018-12-06T13:40:27.851Z,20.27
2018-12-06T13:42:53.962Z,17.43
2018-12-06T13:45:20.065Z,18.40
2018-12-06T13:47:46.253Z,21.47
2018-12-06T13:50:12.389Z,22.63
2018-12-06T13:52:38.575Z,16.40
2018-12-06T13:55:04.939Z,19.80
2018-12-06T13:57:31.068Z,16.37
2018-12-06T13:59:57.062Z,16.40
2018-12-06T14:02:23.848Z,29.47
2018-12-06T14:04:49.920Z,20.87
2018-12-06T14:07:15.829Z,17.73
2018-12-06T14:09:41.730Z,25.37
2018-12-06T14:12:07.627Z,26.70
2018-12-06T14:14:33.492Z,21.60
2018-12-06T14:16:59.406Z,25.97
2018-12-06T14:19:25.264Z,17.27
2018-12-06T14:21:51.130Z,26.70
2018-12-06T14:24:16.989Z,20.20
2018-12-06T14:26:42.887Z,22.87
2018-12-06T14:29:08.759Z,28.53
2018-12-06T14:31:34.770Z,28.67
2018-12-06T14:34:00.667Z,19.70
2018-12-06T14:36:26.595Z,21.10
2018-12-06T14:38:52.481Z,22.13
2018-12-06T14:41:18.415Z,20.83
2018-12-06T14:43:44.509Z,20.90
2018-12-06T14:46:10.881Z,25.80
2018-12-06T14:48:36.888Z,24.47
2018-12-06T14:51:06.426Z,26.17
2018-12-06T14:53:32.369Z,25.40
2018-12-06T14:55:58.247Z,22.00
2018-12-06T14:58:24.103Z,19.33
2018-12-06T15:00:49.990Z,24.27
2018-12-06T15:03:15.940Z,24.37
2018-12-06T15:05:41.828Z,23.47
2018-12-06T15:08:07.719Z,27.50
2018-12-06T15:10:33.588Z,24.20
2018-12-06T15:12:59.498Z,25.20
2018-12-06T15:15:25.628Z,27.80
2018-12-06T15:17:51.516Z,23.30
2018-12-06T15:20:17.387Z,24.83
2018-12-06T15:22:43.263Z,37.30
2018-12-06T15:25:09.134Z,29.00
2018-12-06T15:27:35.342Z,26.57
2018-12-06T15:30:01.270Z,33.00
2018-12-06T15:32:27.168Z,25.03
2018-12-06T15:34:53.010Z,26.93
2018-12-06T15:37:18.957Z,31.23
2018-12-06T15:39:44.834Z,30.93
2018-12-06T15:42:10.710Z,26.07
2018-12-06T15:44:36.586Z,23.97
2018-12-06T15:47:02.528Z,28.10
2018-12-06T15:49:28.429Z,24.47
2018-12-06T15:51:54.345Z,26.93
2018-12-06T15:54:20.297Z,23.87
2018-12-06T15:56:46.234Z,24.43
2018-12-06T15:59:12.170Z,24.20
2018-12-06T16:01:38.124Z,26.77
2018-12-06T16:04:04.026Z,31.27
2018-12-06T16:06:29.912Z,30.43
2018-12-06T16:08:55.778Z,37.20
2018-12-06T16:11:21.640Z,40.27
2018-12-06T16:13:47.531Z,52.20
2018-12-06T16:16:13.463Z,35.33
2018-12-06T16:18:39.413Z,34.30
2018-12-06T16:21:05.309Z,41.90
2018-12-06T16:23:31.210Z,39.50
2018-12-06T16:25:57.245Z,38.70
2018-12-06T16:28:23.589Z,33.90
2018-12-06T16:30:49.463Z,35.87
2018-12-06T16:33:15.374Z,32.70
2018-12-06T16:35:41.342Z,34.53
2018-12-06T16:38:07.225Z,29.20
2018-12-06T16:40:33.131Z,30.93
2018-12-06T16:42:59.000Z,24.40
2018-12-06T16:45:24.928Z,25.77
2018-12-06T16:47:51.064Z,30.20
2018-12-06T16:50:16.971Z,35.00
2018-12-06T16:52:42.849Z,35.03
2018-12-06T16:55:08.703Z,48.20
2018-12-06T16:57:34.599Z,38.27
2018-12-06T17:00:00.564Z,31.73
2018-12-06T17:02:26.477Z,28.23
2018-12-06T17:04:52.391Z,29.60
2018-12-06T17:07:18.341Z,45.60
2018-12-06T17:09:44.332Z,46.80
2018-12-06T17:12:10.226Z,49.10
2018-12-06T17:14:36.110Z,44.77
2018-12-06T17:17:02.011Z,41.90
2018-12-06T17:19:28.777Z,36.97
2018-12-06T17:21:54.733Z,34.03
2018-12-06T17:24:20.626Z,28.87
2018-12-06T17:26:46.641Z,27.10
2018-12-06T17:29:19.574Z,26.60
2018-12-06T17:31:45.462Z,31.43
2018-12-06T17:34:11.388Z,31.10
2018-12-06T17:36:37.311Z,31.27
2018-12-06T17:39:05.198Z,32.10
2018-12-06T17:41:31.121Z,31.17
2018-12-06T17:43:57.106Z,35.80
2018-12-06T17:46:23.035Z,31.67
2018-12-06T17:48:48.978Z,33.17
2018-12-06T17:51:15.655Z,28.83
2018-12-06T17:53:41.614Z,29.43
2018-12-06T17:56:07.535Z,29.67
2018-12-06T17:58:33.564Z,31.20
2018-12-06T18:00:59.463Z,29.90
2018-12-06T18:03:25.479Z,31.63
2018-12-06T18:05:51.497Z,32.13
2018-12-06T18:08:17.445Z,34.27
2018-12-06T18:10:43.364Z,33.57
2018-12-06T18:13:09.319Z,32.80
2018-12-06T18:15:35.495Z,34.73
2018-12-06T18:18:01.446Z,31.50
2018-12-06T18:20:27.351Z,44.90
2018-12-06T18:22:53.330Z,40.23
2018-12-06T18:25:19.234Z,30.70
2018-12-06T18:30:38.071Z,39.80
2018-12-06T18:33:04.067Z,33.00
2018-12-06T18:35:29.963Z,36.80
2018-12-06T18:37:55.844Z,33.60
2018-12-06T18:40:21.728Z,33.60
2018-12-06T18:42:47.599Z,26.93
2018-12-06T18:45:13.472Z,32.73
2018-12-06T18:47:39.393Z,31.53
2018-12-06T18:50:05.403Z,32.83
2018-12-06T18:52:31.333Z,36.43
2018-12-06T18:54:57.231Z,43.50
2018-12-06T18:57:23.147Z,33.20
2018-12-06T18:59:49.170Z,32.70
2018-12-06T19:02:15.070Z,37.00
2018-12-06T19:04:41.016Z,41.63
2018-12-06T19:07:06.926Z,44.17
2018-12-06T19:09:32.801Z,41.50
2018-12-06T19:11:58.686Z,37.43
2018-12-06T19:14:24.573Z,38.30
2018-12-06T19:16:50.447Z,31.60
2018-12-06T19:19:16.367Z,34.10
2018-12-06T19:21:42.264Z,28.00
2018-12-06T19:24:08.179Z,29.17
2018-12-06T19:26:34.086Z,33.00
2018-12-06T19:29:00.543Z,31.43
2018-12-06T19:31:26.470Z,30.13
2018-12-06T19:33:52.373Z,26.37
2018-12-06T19:36:18.403Z,34.97
2018-12-06T19:38:44.307Z,29.77
2018-12-06T19:41:10.184Z,29.40
2018-12-06T19:43:36.055Z,29.70
2018-12-06T19:46:01.956Z,38.27
2018-12-06T19:48:27.891Z,44.97
2018-12-06T19:50:53.819Z,47.30
2018-12-06T19:53:19.808Z,39.23
2018-12-06T19:55:45.941Z,49.90
2018-12-06T19:58:11.996Z,58.43
2018-12-06T20:00:37.923Z,54.43
2018-12-06T20:03:03.888Z,65.73
2018-12-06T20:05:29.743Z,55.33
2018-12-06T20:07:55.653Z,52.70
2018-12-06T20:10:21.575Z,43.90
2018-12-06T20:12:47.517Z,53.67
2018-12-06T20:15:13.381Z,53.67
2018-12-06T20:17:39.306Z,48.37
2018-12-06T20:20:06.634Z,40.73
2018-12-06T20:22:32.643Z,51.27
2018-12-06T20:24:58.644Z,41.50
2018-12-06T20:27:24.696Z,41.80
2018-12-06T20:29:50.590Z,47.00
2018-12-06T20:32:16.466Z,42.00
2018-12-06T20:34:42.394Z,35.30
2018-12-06T20:37:08.281Z,42.97
2018-12-06T20:39:34.193Z,45.50
2018-12-06T20:42:00.229Z,50.80
2018-12-06T20:44:26.219Z,47.03
2018-12-06T20:46:52.171Z,42.27
2018-12-06T20:49:18.078Z,45.50
2018-12-06T20:51:43.979Z,39.63
2018-12-06T20:54:10.078Z,41.40
2018-12-06T20:59:36.023Z,40.27
2018-12-06T21:02:01.958Z,43.00
2018-12-06T21:04:27.861Z,47.47
2018-12-06T21:06:54.152Z,36.07
2018-12-06T21:09:20.040Z,46.20
2018-12-06T21:11:45.927Z,49.97
2018-12-06T21:14:11.904Z,42.17
2018-12-06T21:16:37.931Z,46.67
2018-12-06T21:19:03.977Z,45.60
2018-12-06T21:21:29.915Z,41.73
2018-12-06T21:23:55.829Z,43.57
2018-12-06T21:26:21.738Z,47.97
2018-12-06T21:28:47.712Z,50.60
2018-12-06T21:31:13.579Z,44.43
2018-12-06T21:33:39.464Z,45.07
2018-12-06T21:36:05.566Z,53.97
2018-12-06T21:38:31.519Z,66.20
2018-12-06T21:40:57.461Z,56.23
2018-12-06T21:43:23.364Z,52.30
2018-12-06T21:45:49.290Z,51.90
2018-12-06T21:48:15.445Z,52.13
2018-12-06T21:50:41.336Z,56.13
2018-12-06T21:53:07.247Z,62.67
2018-12-06T21:55:33.127Z,69.50
2018-12-06T21:57:59.117Z,69.37
2018-12-06T22:00:25.025Z,74.30
2018-12-06T22:02:51.061Z,75.37
2018-12-06T22:05:17.111Z,95.23
2018-12-06T22:07:43.118Z,82.93
2018-12-06T22:10:09.052Z,84.20
2018-12-06T22:12:34.993Z,82.57
2018-12-06T22:15:02.930Z,74.07
2018-12-06T22:17:29.047Z,69.80
2018-12-06T22:19:55.136Z,58.20
2018-12-06T22:22:21.009Z,62.43
2018-12-06T22:24:46.927Z,64.80
2018-12-06T22:27:12.813Z,57.97
2018-12-06T22:29:38.682Z,61.43
2018-12-06T22:32:04.551Z,53.40
2018-12-06T22:34:30.449Z,61.37
2018-12-06T22:36:56.416Z,58.70
2018-12-06T22:39:22.282Z,58.80
2018-12-06T22:41:48.178Z,56.17
2018-12-06T22:44:14.014Z,49.43
2018-12-06T22:46:39.923Z,50.63
2018-12-06T22:49:05.903Z,51.83
2018-12-06T22:51:31.766Z,54.37
2018-12-06T22:53:57.630Z,52.53
2018-12-06T22:56:23.527Z,50.27
2018-12-06T22:58:49.395Z,50.00
2018-12-06T23:01:17.370Z,43.73
2018-12-06T23:03:43.258Z,45.13
2018-12-06T23:06:09.306Z,36.70
2018-12-06T23:08:35.193Z,41.57
2018-12-06T23:11:01.199Z,42.90
2018-12-06T23:13:27.063Z,42.20
2018-12-06T23:15:52.926Z,42.03
2018-12-06T23:18:18.815Z,37.10
2018-12-06T23:20:44.868Z,39.93
2018-12-06T23:23:17.599Z,44.57
2018-12-06T23:25:43.458Z,35.03
2018-12-06T23:28:09.332Z,27.10
2018-12-06T23:30:35.195Z,25.13
2018-12-06T23:33:01.079Z,25.30
2018-12-06T23:35:26.945Z,26.80
2018-12-06T23:37:52.786Z,22.00
2018-12-06T23:40:18.695Z,19.77
2018-12-06T23:42:44.552Z,20.13
2018-12-06T23:45:10.486Z,18.10
2018-12-06T23:47:36.955Z,14.87
2018-12-06T23:50:04.082Z,15.90
2018-12-06T23:52:29.947Z,14.03
2018-12-06T23:54:55.878Z,21.13
2018-12-06T23:57:21.751Z,12.90
2018-12-06T23:59:47.658Z,14.23
